Time,TemperatureF,DewpointF,PressureIn,WindDirection,WindDirectionDegrees,WindSpeedMPH,WindSpeedGustMPH,Humidity,HourlyPrecipIn,Conditions,Clouds,dailyrainin,SoftwareType,DateUTC
2013-02-03 00:02:00,43.5,24.0,24.51,SSW,202,0.0,0.0,46,0.00,,,0.00,WUHU216WMR200,2013-02-03 08:02:00,
2013-02-03 00:07:00,43.5,24.0,24.51,SSW,202,0.0,0.0,46,0.00,,,0.00,WUHU216WMR200,2013-02-03 08:07:00,
2013-02-03 00:12:00,43.3,23.8,24.51,SSW,202,0.0,0.0,46,0.00,,,0.00,WUHU216WMR200,2013-02-03 08:12:00,
2013-02-03 00:17:00,43.3,24.3,24.51,SSW,202,0.0,0.0,47,0.00,,,0.00,WUHU216WMR200,2013-02-03 08:17:00,
2013-02-03 00:22:00,43.2,24.7,24.51,SSW,202,0.0,0.0,48,0.00,,,0.00,WUHU216WMR200,2013-02-03 08:22:00,
2013-02-03 00:27:00,43.0,24.6,24.51,SSW,202,0.0,0.0,48,0.00,,,0.00,WUHU216WMR200,2013-02-03 08:27:00,
2013-02-03 00:32:00,42.8,24.9,24.51,SSW,202,0.0,0.0,49,0.00,,,0.00,WUHU216WMR200,2013-02-03 08:32:00,
2013-02-03 00:37:00,42.6,25.2,24.51,SSW,202,0.0,0.0,50,0.00,,,0.00,WUHU216WMR200,2013-02-03 08:37:00,
2013-02-03 00:42:00,42.4,25.5,24.51,SSW,202,0.0,0.0,51,0.00,,,0.00,WUHU216WMR200,2013-02-03 08:42:00,
2013-02-03 00:47:00,42.4,25.5,24.51,SSW,202,0.0,0.0,51,0.00,,,0.00,WUHU216WMR200,2013-02-03 08:47:00,
2013-02-03 00:52:00,42.4,26.0,24.51,SSW,202,0.0,0.0,52,0.00,,,0.00,WUHU216WMR200,2013-02-03 08:52:00,
2013-02-03 00:57:00,42.3,25.9,24.51,SSW,202,0.0,0.0,52,0.00,,,0.00,WUHU216WMR200,2013-02-03 08:57:00,
2013-02-03 01:02:00,42.1,25.7,24.51,SSW,202,0.0,0.0,52,0.00,,,0.00,WUHU216WMR200,2013-02-03 09:02:00,
2013-02-03 01:07:00,42.1,25.7,24.51,SSW,202,0.0,0.0,52,0.00,,,0.00,WUHU216WMR200,2013-02-03 09:07:00,
2013-02-03 01:12:00,41.7,25.8,24.51,SSW,202,0.0,0.0,53,0.00,,,0.00,WUHU216WMR200,2013-02-03 09:12:00,
2013-02-03 01:17:00,41.5,25.6,24.51,SSW,202,0.0,0.0,53,0.00,,,0.00,WUHU216WMR200,2013-02-03 09:17:00,
2013-02-03 01:22:00,41.4,25.5,24.48,SSW,202,0.0,0.0,53,0.00,,,0.00,WUHU216WMR200,2013-02-03 09:22:00,
2013-02-03 01:27:00,41.2,25.8,24.48,SSW,202,0.0,0.0,54,0.00,,,0.00,WUHU216WMR200,2013-02-03 09:27:00,
2013-02-03 01:32:00,41.0,26.1,24.48,SSW,202,0.0,0.0,55,0.00,,,0.00,WUHU216WMR200,2013-02-03 09:32:00,
2013-02-03 01:37:00,41.0,26.5,24.48,SSW,202,0.0,0.0,56,0.00,,,0.00,WUHU216WMR200,2013-02-03 09:37:00,
2013-02-03 01:42:00,40.8,27.2,24.48,SSW,202,0.0,0.0,58,0.00,,,0.00,WUHU216WMR200,2013-02-03 09:42:00,
2013-02-03 01:47:00,40.6,27.0,24.48,SSW,202,0.0,0.0,58,0.00,,,0.00,WUHU216WMR200,2013-02-03 09:47:00,
2013-02-03 01:52:00,40.5,27.3,24.48,SSW,202,0.0,0.0,59,0.00,,,0.00,WUHU216WMR200,2013-02-03 09:52:00,
2013-02-03 01:57:00,40.5,28.2,24.48,SSW,202,0.0,0.0,61,0.00,,,0.00,WUHU216WMR200,2013-02-03 09:57:00,
2013-02-03 02:02:00,40.5,27.8,24.48,SSW,202,0.0,0.0,60,0.00,,,0.00,WUHU216WMR200,2013-02-03 10:02:00,
2013-02-03 02:07:00,40.5,28.2,24.48,SSW,202,0.0,0.0,61,0.00,,,0.00,WUHU216WMR200,2013-02-03 10:07:00,
2013-02-03 02:12:00,40.3,27.6,24.48,SSW,202,0.0,0.0,60,0.00,,,0.00,WUHU216WMR200,2013-02-03 10:12:00,
2013-02-03 02:17:00,40.3,28.4,24.48,SSW,202,0.0,0.0,62,0.00,,,0.00,WUHU216WMR200,2013-02-03 10:17:00,
2013-02-03 02:22:00,40.1,29.7,24.48,SSW,202,0.0,0.0,66,0.00,,,0.00,WUHU216WMR200,2013-02-03 10:22:00,
2013-02-03 02:27:00,39.9,31.0,24.48,SSW,202,0.0,0.0,70,0.00,,,0.00,WUHU216WMR200,2013-02-03 10:27:00,
2013-02-03 02:32:00,39.6,31.0,24.48,SSW,202,0.0,0.0,71,0.00,,,0.00,WUHU216WMR200,2013-02-03 10:32:00,
2013-02-03 02:37:00,39.4,31.5,24.48,SSW,202,0.0,0.0,73,0.00,,,0.00,WUHU216WMR200,2013-02-03 10:37:00,
2013-02-03 02:42:00,39.4,31.2,24.48,SSW,202,0.0,0.0,72,0.00,,,0.00,WUHU216WMR200,2013-02-03 10:42:00,
2013-02-03 02:47:00,39.4,30.9,24.48,SSW,202,0.0,0.0,71,0.00,,,0.00,WUHU216WMR200,2013-02-03 10:47:00,
2013-02-03 02:52:00,39.6,31.0,24.48,SSW,202,0.0,0.0,71,0.00,,,0.00,WUHU216WMR200,2013-02-03 10:52:00,
2013-02-03 02:57:00,39.4,30.5,24.48,SSW,202,0.0,0.0,70,0.00,,,0.00,WUHU216WMR200,2013-02-03 10:57:00,
2013-02-03 03:02:00,39.6,31.0,24.48,SSW,202,0.0,0.0,71,0.00,,,0.00,WUHU216WMR200,2013-02-03 11:02:00,
2013-02-03 03:07:00,39.4,31.5,24.48,SSW,202,0.0,0.0,73,0.00,,,0.00,WUHU216WMR200,2013-02-03 11:07:00,
2013-02-03 03:12:00,39.4,31.2,24.48,SSW,202,0.0,0.0,72,0.00,,,0.00,WUHU216WMR200,2013-02-03 11:12:00,
2013-02-03 03:17:00,39.6,31.4,24.48,SSW,202,0.0,0.0,72,0.00,,,0.00,WUHU216WMR200,2013-02-03 11:17:00,
2013-02-03 03:22:00,39.6,31.4,24.51,SSW,202,0.0,0.0,72,0.00,,,0.00,WUHU216WMR200,2013-02-03 11:22:00,
2013-02-03 03:27:00,39.6,31.7,24.51,SSW,202,0.0,0.0,73,0.00,,,0.00,WUHU216WMR200,2013-02-03 11:27:00,
2013-02-03 03:32:00,39.6,31.7,24.51,SSW,202,0.0,0.0,73,0.00,,,0.00,WUHU216WMR200,2013-02-03 11:32:00,
2013-02-03 03:37:00,39.6,31.4,24.51,SSW,202,0.0,0.0,72,0.00,,,0.00,WUHU216WMR200,2013-02-03 11:37:00,
2013-02-03 03:42:00,39.4,31.5,24.51,SSW,202,0.0,0.0,73,0.00,,,0.00,WUHU216WMR200,2013-02-03 11:42:00,
2013-02-03 03:47:00,39.4,31.5,24.51,SSW,202,0.0,0.0,73,0.00,,,0.00,WUHU216WMR200,2013-02-03 11:47:00,
2013-02-03 03:52:00,39.4,31.5,24.51,SSW,202,0.0,0.0,73,0.00,,,0.00,WUHU216WMR200,2013-02-03 11:52:00,
2013-02-03 03:57:00,39.4,31.5,24.51,SSW,202,0.0,0.0,73,0.00,,,0.00,WUHU216WMR200,2013-02-03 11:57:00,
2013-02-03 04:02:00,39.6,31.4,24.51,SSW,202,0.0,0.0,72,0.00,,,0.00,WUHU216WMR200,2013-02-03 12:02:00,
2013-02-03 04:07:00,39.6,31.7,24.48,SSW,202,0.0,0.0,73,0.00,,,0.00,WUHU216WMR200,2013-02-03 12:07:00,
2013-02-03 04:12:00,39.4,31.5,24.48,SSW,202,0.0,0.0,73,0.00,,,0.00,WUHU216WMR200,2013-02-03 12:12:00,
2013-02-03 04:17:00,39.4,31.5,24.48,SSW,202,0.0,0.0,73,0.00,,,0.00,WUHU216WMR200,2013-02-03 12:17:00,
2013-02-03 04:22:00,39.4,31.9,24.48,SSW,202,0.0,0.0,74,0.00,,,0.00,WUHU216WMR200,2013-02-03 12:22:00,
2013-02-03 04:27:00,39.2,31.7,24.48,SSW,202,0.0,0.0,74,0.00,,,0.00,WUHU216WMR200,2013-02-03 12:27:00,
2013-02-03 04:32:00,39.4,31.9,24.48,SSW,202,0.0,0.0,74,0.00,,,0.00,WUHU216WMR200,2013-02-03 12:32:00,
2013-02-03 04:37:00,39.2,32.0,24.48,SSW,202,0.0,0.0,75,0.00,,,0.00,WUHU216WMR200,2013-02-03 12:37:00,
2013-02-03 04:42:00,39.2,32.0,24.48,SSW,202,0.0,0.0,75,0.00,,,0.00,WUHU216WMR200,2013-02-03 12:42:00,
2013-02-03 04:47:00,39.2,32.0,24.48,SSW,202,0.0,0.0,75,0.00,,,0.00,WUHU216WMR200,2013-02-03 12:47:00,
2013-02-03 04:52:00,39.2,31.7,24.48,SSW,202,0.0,0.0,74,0.00,,,0.00,WUHU216WMR200,2013-02-03 12:52:00,
2013-02-03 04:57:00,39.2,31.7,24.48,SSW,202,0.0,0.0,74,0.00,,,0.00,WUHU216WMR200,2013-02-03 12:57:00,
2013-02-03 05:02:00,39.2,31.7,24.48,SSW,202,0.0,0.0,74,0.00,,,0.00,WUHU216WMR200,2013-02-03 13:02:00,
2013-02-03 05:07:00,39.2,31.7,24.48,SSW,202,0.0,0.0,74,0.00,,,0.00,WUHU216WMR200,2013-02-03 13:07:00,
2013-02-03 05:12:00,39.2,31.7,24.48,SSW,202,0.0,0.0,74,0.00,,,0.00,WUHU216WMR200,2013-02-03 13:12:00,
2013-02-03 05:17:00,39.2,31.7,24.48,SSE,157,0.0,0.0,74,0.00,,,0.00,WUHU216WMR200,2013-02-03 13:17:00,
2013-02-03 05:22:00,39.2,31.7,24.48,West,270,0.0,0.0,74,0.00,,,0.00,WUHU216WMR200,2013-02-03 13:22:00,
2013-02-03 05:27:00,39.2,32.0,24.48,WNW,292,0.0,0.0,75,0.00,,,0.00,WUHU216WMR200,2013-02-03 13:27:00,
2013-02-03 05:32:00,39.2,32.3,24.48,WNW,292,0.0,1.1,76,0.00,,,0.00,WUHU216WMR200,2013-02-03 13:32:00,
2013-02-03 05:37:00,39.0,32.8,24.48,NNE,22,0.9,2.0,78,0.00,,,0.00,WUHU216WMR200,2013-02-03 13:37:00,
2013-02-03 05:42:00,38.8,32.9,24.48,West,270,0.9,2.5,79,0.00,,,0.00,WUHU216WMR200,2013-02-03 13:42:00,
2013-02-03 05:47:00,38.8,33.2,24.48,West,270,1.6,2.5,80,0.00,,,0.00,WUHU216WMR200,2013-02-03 13:47:00,
2013-02-03 05:52:00,38.8,33.5,24.45,WNW,292,2.9,2.9,81,0.00,,,0.00,WUHU216WMR200,2013-02-03 13:52:00,
2013-02-03 05:57:00,38.8,33.5,24.45,West,270,0.0,2.9,81,0.00,,,0.00,WUHU216WMR200,2013-02-03 13:57:00,
2013-02-03 06:02:00,38.8,33.2,24.45,WNW,292,1.1,2.9,80,0.00,,,0.00,WUHU216WMR200,2013-02-03 14:02:00,
2013-02-03 06:07:00,39.2,32.9,24.48,West,270,0.0,1.1,78,0.00,,,0.00,WUHU216WMR200,2013-02-03 14:07:00,
2013-02-03 06:12:00,39.2,32.6,24.48,West,270,0.0,1.1,77,0.00,,,0.00,WUHU216WMR200,2013-02-03 14:12:00,
2013-02-03 06:17:00,39.4,32.8,24.48,West,270,1.1,2.0,77,0.00,,,0.00,WUHU216WMR200,2013-02-03 14:17:00,
2013-02-03 06:22:00,39.6,33.0,24.48,WNW,292,0.0,2.0,77,0.00,,,0.00,WUHU216WMR200,2013-02-03 14:22:00,
2013-02-03 06:27:00,39.6,33.0,24.48,West,270,0.0,2.0,77,0.00,,,0.00,WUHU216WMR200,2013-02-03 14:27:00,
2013-02-03 06:32:00,39.7,32.8,24.48,WSW,247,0.0,0.9,76,0.00,,,0.00,WUHU216WMR200,2013-02-03 14:32:00,
2013-02-03 06:37:00,39.7,32.5,24.48,SW,225,0.0,0.0,75,0.00,,,0.00,WUHU216WMR200,2013-02-03 14:37:00,
2013-02-03 06:42:00,39.7,32.5,24.48,SW,225,0.0,0.0,75,0.00,,,0.00,WUHU216WMR200,2013-02-03 14:42:00,
2013-02-03 06:47:00,39.7,32.2,24.48,SW,225,0.0,0.0,74,0.00,,,0.00,WUHU216WMR200,2013-02-03 14:47:00,
2013-02-03 06:52:00,39.4,31.9,24.48,SW,225,0.0,0.0,74,0.00,,,0.00,WUHU216WMR200,2013-02-03 14:52:00,
2013-02-03 06:57:00,39.2,31.7,24.48,SW,225,0.0,0.0,74,0.00,,,0.00,WUHU216WMR200,2013-02-03 14:57:00,
2013-02-03 07:02:00,39.0,31.5,24.48,South,180,0.0,0.0,74,0.00,,,0.00,WUHU216WMR200,2013-02-03 15:02:00,
2013-02-03 07:07:00,38.8,31.3,24.48,West,270,0.0,0.0,74,0.00,,,0.00,WUHU216WMR200,2013-02-03 15:07:00,
2013-02-03 07:12:00,39.0,31.5,24.48,NW,315,0.0,0.0,74,0.00,,,0.00,WUHU216WMR200,2013-02-03 15:12:00,
2013-02-03 07:17:00,40.6,33.0,24.48,SE,135,0.0,0.0,74,0.00,,,0.00,WUHU216WMR200,2013-02-03 15:17:00,
2013-02-03 07:22:00,42.4,35.1,24.51,SE,135,0.0,0.0,75,0.00,,,0.00,WUHU216WMR200,2013-02-03 15:22:00,
2013-02-03 07:27:00,44.2,36.2,24.51,ESE,112,0.0,0.0,73,0.00,,,0.00,WUHU216WMR200,2013-02-03 15:27:00,
2013-02-03 07:32:00,46.0,37.2,24.51,SE,135,0.0,0.0,71,0.00,,,0.00,WUHU216WMR200,2013-02-03 15:32:00,
2013-02-03 07:37:00,47.3,36.6,24.48,SE,135,0.0,0.0,66,0.00,,,0.00,WUHU216WMR200,2013-02-03 15:37:00,
2013-02-03 07:42:00,48.6,35.8,24.48,SSW,202,0.0,0.0,61,0.00,,,0.00,WUHU216WMR200,2013-02-03 15:42:00,
2013-02-03 07:47:00,49.6,36.4,24.48,ESE,112,0.0,0.0,60,0.00,,,0.00,WUHU216WMR200,2013-02-03 15:47:00,
2013-02-03 07:52:00,50.7,35.2,24.48,SW,225,0.0,0.0,55,0.00,,,0.00,WUHU216WMR200,2013-02-03 15:52:00,
2013-02-03 07:57:00,51.3,34.3,24.48,SW,225,0.0,0.0,52,0.00,,,0.00,WUHU216WMR200,2013-02-03 15:57:00,
2013-02-03 08:02:00,52.0,33.9,24.48,WSW,247,0.0,0.0,50,0.00,,,0.00,WUHU216WMR200,2013-02-03 16:02:00,
2013-02-03 08:07:00,52.5,33.8,24.48,West,270,0.0,0.0,49,0.00,,,0.00,WUHU216WMR200,2013-02-03 16:07:00,
2013-02-03 08:12:00,54.5,34.6,24.48,WSW,247,0.0,0.0,47,0.00,,,0.00,WUHU216WMR200,2013-02-03 16:12:00,
2013-02-03 08:17:00,56.1,35.5,24.48,SW,225,0.0,0.0,46,0.00,,,0.00,WUHU216WMR200,2013-02-03 16:17:00,
2013-02-03 08:22:00,56.8,36.2,24.48,SSW,202,0.0,0.0,46,0.00,,,0.00,WUHU216WMR200,2013-02-03 16:22:00,
2013-02-03 08:27:00,58.5,35.3,24.48,SW,225,0.0,0.0,42,0.00,,,0.00,WUHU216WMR200,2013-02-03 16:27:00,
2013-02-03 08:32:00,59.7,35.2,24.48,SE,135,0.0,0.0,40,0.00,,,0.00,WUHU216WMR200,2013-02-03 16:32:00,
2013-02-03 08:37:00,60.1,35.5,24.45,ESE,112,0.0,0.0,40,0.00,,,0.00,WUHU216WMR200,2013-02-03 16:37:00,
2013-02-03 08:42:00,60.1,34.2,24.45,SE,135,0.0,0.0,38,0.00,,,0.00,WUHU216WMR200,2013-02-03 16:42:00,
2013-02-03 08:47:00,59.9,34.0,24.45,West,270,0.0,0.0,38,0.00,,,0.00,WUHU216WMR200,2013-02-03 16:47:00,
2013-02-03 08:52:00,61.2,34.5,24.48,SSE,157,0.0,0.0,37,0.00,,,0.00,WUHU216WMR200,2013-02-03 16:52:00,
2013-02-03 08:57:00,61.7,35.0,24.48,South,180,0.0,0.0,37,0.00,,,0.00,WUHU216WMR200,2013-02-03 16:57:00,
2013-02-03 09:02:00,61.7,34.3,24.48,WSW,247,0.0,0.0,36,0.00,,,0.00,WUHU216WMR200,2013-02-03 17:02:00,
2013-02-03 09:07:00,62.2,34.7,24.48,SW,225,0.0,0.0,36,0.00,,,0.00,WUHU216WMR200,2013-02-03 17:07:00,
2013-02-03 09:12:00,63.7,35.3,24.48,SSW,202,0.0,0.0,35,0.00,,,0.00,WUHU216WMR200,2013-02-03 17:12:00,
2013-02-03 09:17:00,64.0,35.6,24.48,West,270,0.0,0.0,35,0.00,,,0.00,WUHU216WMR200,2013-02-03 17:17:00,
2013-02-03 09:22:00,64.6,36.1,24.45,SE,135,0.0,0.0,35,0.00,,,0.00,WUHU216WMR200,2013-02-03 17:22:00,
2013-02-03 09:27:00,64.4,35.2,24.45,West,270,0.0,0.0,34,0.00,,,0.00,WUHU216WMR200,2013-02-03 17:27:00,
2013-02-03 09:32:00,65.5,36.2,24.45,SE,135,0.0,0.0,34,0.00,,,0.00,WUHU216WMR200,2013-02-03 17:32:00,
2013-02-03 09:37:00,65.7,35.6,24.45,WSW,247,0.0,0.0,33,0.00,,,0.00,WUHU216WMR200,2013-02-03 17:37:00,
2013-02-03 09:42:00,66.6,36.4,24.45,SSW,202,0.0,0.0,33,0.00,,,0.00,WUHU216WMR200,2013-02-03 17:42:00,
2013-02-03 09:47:00,65.8,35.7,24.45,SE,135,0.0,0.9,33,0.00,,,0.00,WUHU216WMR200,2013-02-03 17:47:00,
2013-02-03 09:52:00,66.2,36.0,24.45,SW,225,0.0,1.1,33,0.00,,,0.00,WUHU216WMR200,2013-02-03 17:52:00,
2013-02-03 09:57:00,66.7,35.7,24.45,SE,135,0.0,1.1,32,0.00,,,0.00,WUHU216WMR200,2013-02-03 17:57:00,
2013-02-03 10:02:00,66.6,34.8,24.45,SSE,157,0.0,1.1,31,0.00,,,0.00,WUHU216WMR200,2013-02-03 18:02:00,
2013-02-03 10:07:00,63.1,31.8,24.42,SE,135,0.0,1.1,31,0.00,,,0.00,WUHU216WMR200,2013-02-03 18:07:00,
2013-02-03 10:12:00,62.4,32.7,24.42,SW,225,0.0,1.1,33,0.00,,,0.00,WUHU216WMR200,2013-02-03 18:12:00,
2013-02-03 10:17:00,63.5,33.7,24.42,SSE,157,0.0,1.6,33,0.00,,,0.00,WUHU216WMR200,2013-02-03 18:17:00,
2013-02-03 10:22:00,64.4,34.5,24.42,WNW,292,0.0,1.6,33,0.00,,,0.00,WUHU216WMR200,2013-02-03 18:22:00,
2013-02-03 10:27:00,66.6,34.8,24.42,West,270,0.0,0.9,31,0.00,,,0.00,WUHU216WMR200,2013-02-03 18:27:00,
2013-02-03 10:32:00,68.9,37.6,24.42,ESE,112,0.0,1.6,32,0.00,,,0.00,WUHU216WMR200,2013-02-03 18:32:00,
2013-02-03 10:37:00,70.2,37.1,24.42,West,270,0.0,1.6,30,0.00,,,0.00,WUHU216WMR200,2013-02-03 18:37:00,
2013-02-03 10:42:00,71.1,36.2,24.42,South,180,0.0,2.0,28,0.00,,,0.00,WUHU216WMR200,2013-02-03 18:42:00,
2013-02-03 10:47:00,71.4,36.4,24.42,NW,315,1.6,2.0,28,0.00,,,0.00,WUHU216WMR200,2013-02-03 18:47:00,
2013-02-03 10:52:00,69.1,33.5,24.42,WNW,292,0.0,3.6,27,0.00,,,0.00,WUHU216WMR200,2013-02-03 18:52:00,
2013-02-03 10:57:00,69.4,33.8,24.42,WNW,292,1.1,3.6,27,0.00,,,0.00,WUHU216WMR200,2013-02-03 18:57:00,
2013-02-03 11:02:00,71.2,34.4,24.42,WNW,292,1.1,2.5,26,0.00,,,0.00,WUHU216WMR200,2013-02-03 19:02:00,
2013-02-03 11:07:00,71.2,34.4,24.42,SSW,202,0.0,2.5,26,0.00,,,0.00,WUHU216WMR200,2013-02-03 19:07:00,
2013-02-03 11:12:00,71.4,33.6,24.42,SE,135,0.0,2.5,25,0.00,,,0.00,WUHU216WMR200,2013-02-03 19:12:00,
2013-02-03 11:17:00,71.6,32.8,24.42,WNW,292,3.8,3.8,24,0.00,,,0.00,WUHU216WMR200,2013-02-03 19:17:00,
2013-02-03 11:22:00,68.9,31.5,24.42,East,90,0.0,3.8,25,0.00,,,0.00,WUHU216WMR200,2013-02-03 19:22:00,
2013-02-03 11:27:00,72.1,33.2,24.42,West,270,0.9,3.8,24,0.00,,,0.00,WUHU216WMR200,2013-02-03 19:27:00,
2013-02-03 11:32:00,70.0,32.4,24.42,WNW,292,1.3,3.1,25,0.00,,,0.00,WUHU216WMR200,2013-02-03 19:32:00,
2013-02-03 11:37:00,69.8,31.3,24.42,SSW,202,2.7,3.4,24,0.00,,,0.00,WUHU216WMR200,2013-02-03 19:37:00,
2013-02-03 11:42:00,69.4,31.9,24.42,WSW,247,0.0,4.7,25,0.00,,,0.00,WUHU216WMR200,2013-02-03 19:42:00,
2013-02-03 11:47:00,68.2,30.9,24.42,NW,315,2.0,4.7,25,0.00,,,0.00,WUHU216WMR200,2013-02-03 19:47:00,
2013-02-03 11:52:00,66.7,29.6,24.39,West,270,0.9,3.8,25,0.00,,,0.00,WUHU216WMR200,2013-02-03 19:52:00,
2013-02-03 11:57:00,68.4,31.1,24.39,SSW,202,1.1,3.4,25,0.00,,,0.00,WUHU216WMR200,2013-02-03 19:57:00,
2013-02-03 12:02:00,67.3,30.1,24.39,West,270,2.5,3.8,25,0.00,,,0.00,WUHU216WMR200,2013-02-03 20:02:00,
2013-02-03 12:07:00,69.8,32.3,24.39,SE,135,0.0,3.8,25,0.00,,,0.00,WUHU216WMR200,2013-02-03 20:07:00,
2013-02-03 12:12:00,70.7,32.0,24.39,NNW,337,2.0,2.5,24,0.00,,,0.00,WUHU216WMR200,2013-02-03 20:12:00,
2013-02-03 12:17:00,70.9,32.2,24.39,SE,135,0.0,2.7,24,0.00,,,0.00,WUHU216WMR200,2013-02-03 20:17:00,
2013-02-03 12:22:00,73.2,34.1,24.39,West,270,1.3,2.7,24,0.00,,,0.00,WUHU216WMR200,2013-02-03 20:22:00,
2013-02-03 12:27:00,70.3,31.7,24.39,NW,315,2.0,3.6,24,0.00,,,0.00,WUHU216WMR200,2013-02-03 20:27:00,
2013-02-03 12:32:00,72.9,33.9,24.39,NW,315,1.1,3.6,24,0.00,,,0.00,WUHU216WMR200,2013-02-03 20:32:00,
2013-02-03 12:37:00,73.0,32.9,24.36,NNW,337,0.0,3.1,23,0.00,,,0.00,WUHU216WMR200,2013-02-03 20:37:00,
2013-02-03 12:42:00,73.6,33.4,24.36,ESE,112,2.5,2.7,23,0.00,,,0.00,WUHU216WMR200,2013-02-03 20:42:00,
2013-02-03 12:47:00,73.0,32.9,24.36,ESE,112,0.9,3.6,23,0.00,,,0.00,WUHU216WMR200,2013-02-03 20:47:00,
2013-02-03 12:52:00,75.4,33.8,24.36,ENE,67,0.9,3.6,22,0.00,,,0.00,WUHU216WMR200,2013-02-03 20:52:00,
2013-02-03 12:57:00,74.7,33.3,24.36,ENE,67,2.2,2.7,22,0.00,,,0.00,WUHU216WMR200,2013-02-03 20:57:00,
2013-02-03 13:02:00,74.7,33.3,24.36,SSE,157,0.0,2.9,22,0.00,,,0.00,WUHU216WMR200,2013-02-03 21:02:00,
2013-02-03 13:07:00,71.4,31.6,24.36,WSW,247,2.5,2.9,23,0.00,,,0.00,WUHU216WMR200,2013-02-03 21:07:00,
2013-02-03 13:12:00,71.4,31.6,24.36,ESE,112,1.1,2.9,23,0.00,,,0.00,WUHU216WMR200,2013-02-03 21:12:00,
2013-02-03 13:17:00,73.6,33.4,24.36,SSE,157,0.0,2.9,23,0.00,,,0.00,WUHU216WMR200,2013-02-03 21:17:00,
2013-02-03 13:22:00,72.9,32.8,24.36,SSE,157,0.0,1.3,23,0.00,,,0.00,WUHU216WMR200,2013-02-03 21:22:00,
2013-02-03 13:27:00,73.6,32.3,24.36,SW,225,0.0,1.3,22,0.00,,,0.00,WUHU216WMR200,2013-02-03 21:27:00,
2013-02-03 13:32:00,77.2,34.2,24.36,West,270,0.9,1.6,21,0.00,,,0.00,WUHU216WMR200,2013-02-03 21:32:00,
2013-02-03 13:37:00,74.8,33.3,24.36,SE,135,0.0,3.4,22,0.00,,,0.00,WUHU216WMR200,2013-02-03 21:37:00,
2013-02-03 13:42:00,72.1,31.1,24.36,SE,135,0.0,3.4,22,0.00,,,0.00,WUHU216WMR200,2013-02-03 21:42:00,
2013-02-03 13:47:00,72.7,31.6,24.36,South,180,0.0,3.1,22,0.00,,,0.00,WUHU216WMR200,2013-02-03 21:47:00,
2013-02-03 13:52:00,72.3,31.2,24.36,ESE,112,0.9,4.0,22,0.00,,,0.00,WUHU216WMR200,2013-02-03 21:52:00,
2013-02-03 13:57:00,73.2,32.0,24.36,SSW,202,0.0,4.0,22,0.00,,,0.00,WUHU216WMR200,2013-02-03 21:57:00,
2013-02-03 14:02:00,75.9,33.1,24.36,South,180,0.0,2.7,21,0.00,,,0.00,WUHU216WMR200,2013-02-03 22:02:00,
2013-02-03 14:07:00,73.6,31.2,24.36,SE,135,1.1,2.0,21,0.00,,,0.00,WUHU216WMR200,2013-02-03 22:07:00,
2013-02-03 14:12:00,71.1,30.2,24.36,West,270,1.6,2.0,22,0.00,,,0.00,WUHU216WMR200,2013-02-03 22:12:00,
2013-02-03 14:17:00,70.0,29.3,24.36,West,270,0.0,3.1,22,0.00,,,0.00,WUHU216WMR200,2013-02-03 22:17:00,
2013-02-03 14:22:00,70.5,29.7,24.36,WNW,292,2.5,3.1,22,0.00,,,0.00,WUHU216WMR200,2013-02-03 22:22:00,
2013-02-03 14:27:00,70.3,29.6,24.36,West,270,0.0,3.4,22,0.00,,,0.00,WUHU216WMR200,2013-02-03 22:27:00,
2013-02-03 14:32:00,71.4,30.5,24.36,NNE,22,0.9,3.4,22,0.00,,,0.00,WUHU216WMR200,2013-02-03 22:32:00,
2013-02-03 14:37:00,70.0,29.3,24.36,West,270,1.1,4.0,22,0.00,,,0.00,WUHU216WMR200,2013-02-03 22:37:00,
2013-02-03 14:42:00,68.7,29.3,24.36,NW,315,0.0,4.0,23,0.00,,,0.00,WUHU216WMR200,2013-02-03 22:42:00,
2013-02-03 14:47:00,68.5,29.1,24.36,SW,225,1.1,4.3,23,0.00,,,0.00,WUHU216WMR200,2013-02-03 22:47:00,
2013-02-03 14:52:00,67.5,28.3,24.33,SE,135,0.0,4.3,23,0.00,,,0.00,WUHU216WMR200,2013-02-03 22:52:00,
2013-02-03 14:57:00,67.8,28.5,24.33,West,270,0.0,2.5,23,0.00,,,0.00,WUHU216WMR200,2013-02-03 22:57:00,
2013-02-03 15:02:00,67.6,28.4,24.33,West,270,0.0,1.3,23,0.00,,,0.00,WUHU216WMR200,2013-02-03 23:02:00,
2013-02-03 15:07:00,68.9,29.5,24.36,South,180,1.1,2.9,23,0.00,,,0.00,WUHU216WMR200,2013-02-03 23:07:00,
2013-02-03 15:12:00,69.1,29.6,24.36,SSW,202,0.0,2.9,23,0.00,,,0.00,WUHU216WMR200,2013-02-03 23:12:00,
2013-02-03 15:17:00,69.3,29.8,24.36,WNW,292,0.9,1.3,23,0.00,,,0.00,WUHU216WMR200,2013-02-03 23:17:00,
2013-02-03 15:22:00,67.1,27.9,24.36,West,270,0.0,2.9,23,0.00,,,0.00,WUHU216WMR200,2013-02-03 23:22:00,
2013-02-03 15:27:00,67.8,28.5,24.36,SW,225,0.0,2.9,23,0.00,,,0.00,WUHU216WMR200,2013-02-03 23:27:00,
2013-02-03 15:32:00,68.2,28.9,24.36,ESE,112,0.0,2.5,23,0.00,,,0.00,WUHU216WMR200,2013-02-03 23:32:00,
2013-02-03 15:37:00,68.5,29.1,24.39,North,0,0.0,2.9,23,0.00,,,0.00,WUHU216WMR200,2013-02-03 23:37:00,
2013-02-03 15:42:00,69.3,29.8,24.39,West,270,0.0,2.9,23,0.00,,,0.00,WUHU216WMR200,2013-02-03 23:42:00,
2013-02-03 15:47:00,71.1,31.3,24.39,SW,225,0.9,2.0,23,0.00,,,0.00,WUHU216WMR200,2013-02-03 23:47:00,
2013-02-03 15:52:00,67.8,28.5,24.39,South,180,0.0,2.5,23,0.00,,,0.00,WUHU216WMR200,2013-02-03 23:52:00,
2013-02-03 15:57:00,66.2,27.2,24.39,West,270,0.0,2.5,23,0.00,,,0.00,WUHU216WMR200,2013-02-03 23:57:00,
2013-02-03 16:02:00,68.0,28.7,24.39,SE,135,0.0,1.6,23,0.00,,,0.00,WUHU216WMR200,2013-02-04 00:02:00,
2013-02-03 16:07:00,68.2,28.9,24.39,SW,225,0.0,2.0,23,0.00,,,0.00,WUHU216WMR200,2013-02-04 00:07:00,
2013-02-03 16:12:00,68.7,29.3,24.39,WSW,247,0.0,2.2,23,0.00,,,0.00,WUHU216WMR200,2013-02-04 00:12:00,
2013-02-03 16:17:00,68.4,29.0,24.39,West,270,0.0,2.2,23,0.00,,,0.00,WUHU216WMR200,2013-02-04 00:17:00,
2013-02-03 16:22:00,68.7,29.3,24.39,South,180,0.0,1.1,23,0.00,,,0.00,WUHU216WMR200,2013-02-04 00:22:00,
2013-02-03 16:27:00,67.8,28.5,24.39,SSW,202,0.0,1.1,23,0.00,,,0.00,WUHU216WMR200,2013-02-04 00:27:00,
2013-02-03 16:32:00,67.5,28.3,24.39,SSE,157,0.0,1.1,23,0.00,,,0.00,WUHU216WMR200,2013-02-04 00:32:00,
2013-02-03 16:37:00,64.6,26.9,24.39,SSE,157,0.0,0.0,24,0.00,,,0.00,WUHU216WMR200,2013-02-04 00:37:00,
2013-02-03 16:42:00,65.8,27.9,24.39,SSE,157,0.0,0.0,24,0.00,,,0.00,WUHU216WMR200,2013-02-04 00:42:00,
2013-02-03 16:47:00,65.5,27.6,24.39,SSW,202,0.0,0.0,24,0.00,,,0.00,WUHU216WMR200,2013-02-04 00:47:00,
2013-02-03 16:52:00,63.7,26.1,24.42,South,180,0.0,0.0,24,0.00,,,0.00,WUHU216WMR200,2013-02-04 00:52:00,
2013-02-03 16:57:00,61.2,24.9,24.42,WSW,247,0.0,0.0,25,0.00,,,0.00,WUHU216WMR200,2013-02-04 00:57:00,
2013-02-03 17:02:00,59.7,23.7,24.42,SW,225,0.0,0.0,25,0.00,,,0.00,WUHU216WMR200,2013-02-04 01:02:00,
2013-02-03 17:07:00,56.8,22.1,24.39,West,270,0.0,0.0,26,0.00,,,0.00,WUHU216WMR200,2013-02-04 01:07:00,
2013-02-03 17:12:00,53.6,20.2,24.39,West,270,1.3,1.3,27,0.00,,,0.00,WUHU216WMR200,2013-02-04 01:12:00,
2013-02-03 17:17:00,51.6,19.3,24.39,West,270,0.0,1.3,28,0.00,,,0.00,WUHU216WMR200,2013-02-04 01:17:00,
2013-02-03 17:22:00,50.2,19.7,24.42,WSW,247,1.6,1.6,30,0.00,,,0.00,WUHU216WMR200,2013-02-04 01:22:00,
2013-02-03 17:27:00,49.6,20.0,24.42,WSW,247,1.6,1.6,31,0.00,,,0.00,WUHU216WMR200,2013-02-04 01:27:00,
2013-02-03 17:32:00,48.9,20.1,24.42,WSW,247,1.6,1.6,32,0.00,,,0.00,WUHU216WMR200,2013-02-04 01:32:00,
2013-02-03 17:37:00,48.6,20.5,24.42,SW,225,0.0,1.6,33,0.00,,,0.00,WUHU216WMR200,2013-02-04 01:37:00,
2013-02-03 17:42:00,48.0,20.7,24.42,SW,225,0.0,1.6,34,0.00,,,0.00,WUHU216WMR200,2013-02-04 01:42:00,
2013-02-03 17:47:00,47.7,21.1,24.42,SW,225,0.0,0.0,35,0.00,,,0.00,WUHU216WMR200,2013-02-04 01:47:00,
2013-02-03 17:52:00,47.3,21.5,24.42,SSE,157,0.0,0.0,36,0.00,,,0.00,WUHU216WMR200,2013-02-04 01:52:00,
2013-02-03 17:57:00,46.9,21.8,24.42,SSE,157,0.0,0.0,37,0.00,,,0.00,WUHU216WMR200,2013-02-04 01:57:00,
2013-02-03 18:02:00,46.6,21.5,24.42,SSE,157,0.0,0.0,37,0.00,,,0.00,WUHU216WMR200,2013-02-04 02:02:00,
2013-02-03 18:07:00,46.4,21.3,24.42,SSE,157,0.0,0.0,37,0.00,,,0.00,WUHU216WMR200,2013-02-04 02:07:00,
2013-02-03 18:12:00,46.4,21.9,24.42,SSE,157,0.0,0.0,38,0.00,,,0.00,WUHU216WMR200,2013-02-04 02:12:00,
2013-02-03 18:17:00,46.2,21.8,24.42,SSE,157,0.0,0.0,38,0.00,,,0.00,WUHU216WMR200,2013-02-04 02:17:00,
2013-02-03 18:22:00,45.9,22.1,24.42,SSE,157,0.0,0.0,39,0.00,,,0.00,WUHU216WMR200,2013-02-04 02:22:00,
2013-02-03 18:27:00,45.7,21.9,24.42,SSE,157,0.0,0.0,39,0.00,,,0.00,WUHU216WMR200,2013-02-04 02:27:00,
2013-02-03 18:32:00,45.3,21.6,24.42,SSE,157,0.0,0.0,39,0.00,,,0.00,WUHU216WMR200,2013-02-04 02:32:00,
2013-02-03 18:37:00,45.3,21.6,24.42,SSE,157,0.0,0.0,39,0.00,,,0.00,WUHU216WMR200,2013-02-04 02:37:00,
2013-02-03 18:42:00,45.3,21.6,24.42,SE,135,0.0,0.0,39,0.00,,,0.00,WUHU216WMR200,2013-02-04 02:42:00,
2013-02-03 18:47:00,45.1,21.4,24.42,SSE,157,0.0,0.0,39,0.00,,,0.00,WUHU216WMR200,2013-02-04 02:47:00,
2013-02-03 18:52:00,45.0,21.3,24.39,SE,135,0.0,0.0,39,0.00,,,0.00,WUHU216WMR200,2013-02-04 02:52:00,
2013-02-03 18:57:00,44.8,21.1,24.39,ESE,112,0.0,0.0,39,0.00,,,0.00,WUHU216WMR200,2013-02-04 02:57:00,
2013-02-03 19:02:00,44.6,21.6,24.39,SSW,202,0.0,0.0,40,0.00,,,0.00,WUHU216WMR200,2013-02-04 03:02:00,
2013-02-03 19:07:00,44.6,21.6,24.39,SSE,157,0.0,0.0,40,0.00,,,0.00,WUHU216WMR200,2013-02-04 03:07:00,
2013-02-03 19:12:00,44.6,21.6,24.39,SW,225,0.0,0.0,40,0.00,,,0.00,WUHU216WMR200,2013-02-04 03:12:00,
2013-02-03 19:17:00,44.2,21.8,24.39,WSW,247,0.0,0.0,41,0.00,,,0.00,WUHU216WMR200,2013-02-04 03:17:00,
2013-02-03 19:22:00,44.1,21.7,24.42,WSW,247,0.0,0.0,41,0.00,,,0.00,WUHU216WMR200,2013-02-04 03:22:00,
2013-02-03 19:27:00,44.1,21.7,24.42,South,180,0.0,0.0,41,0.00,,,0.00,WUHU216WMR200,2013-02-04 03:27:00,
2013-02-03 19:32:00,43.7,21.3,24.42,SW,225,0.0,0.0,41,0.00,,,0.00,WUHU216WMR200,2013-02-04 03:32:00,
2013-02-03 19:37:00,43.5,21.2,24.39,SW,225,0.0,0.0,41,0.00,,,0.00,WUHU216WMR200,2013-02-04 03:37:00,
2013-02-03 19:42:00,43.5,21.2,24.39,SE,135,0.0,0.9,41,0.00,,,0.00,WUHU216WMR200,2013-02-04 03:42:00,
2013-02-03 19:47:00,43.5,21.7,24.39,ESE,112,1.1,1.1,42,0.00,,,0.00,WUHU216WMR200,2013-02-04 03:47:00,
2013-02-03 19:52:00,43.7,21.9,24.39,SSW,202,0.0,2.0,42,0.00,,,0.00,WUHU216WMR200,2013-02-04 03:52:00,
2013-02-03 19:57:00,43.5,21.7,24.39,SSW,202,0.0,2.0,42,0.00,,,0.00,WUHU216WMR200,2013-02-04 03:57:00,
2013-02-03 20:02:00,43.3,21.6,24.39,SSW,202,0.0,0.0,42,0.00,,,0.00,WUHU216WMR200,2013-02-04 04:02:00,
2013-02-03 20:07:00,43.2,21.5,24.39,ESE,112,0.0,0.0,42,0.00,,,0.00,WUHU216WMR200,2013-02-04 04:07:00,
2013-02-03 20:12:00,43.2,21.5,24.39,ESE,112,0.0,0.0,42,0.00,,,0.00,WUHU216WMR200,2013-02-04 04:12:00,
2013-02-03 20:17:00,43.3,21.6,24.39,ESE,112,0.0,0.0,42,0.00,,,0.00,WUHU216WMR200,2013-02-04 04:17:00,
2013-02-03 20:22:00,43.2,21.5,24.39,ESE,112,0.0,0.0,42,0.00,,,0.00,WUHU216WMR200,2013-02-04 04:22:00,
2013-02-03 20:27:00,43.2,21.5,24.39,SE,135,0.0,0.0,42,0.00,,,0.00,WUHU216WMR200,2013-02-04 04:27:00,
2013-02-03 20:32:00,43.0,21.3,24.39,South,180,0.0,0.0,42,0.00,,,0.00,WUHU216WMR200,2013-02-04 04:32:00,
2013-02-03 20:37:00,43.0,21.3,24.42,South,180,0.0,0.0,42,0.00,,,0.00,WUHU216WMR200,2013-02-04 04:37:00,
2013-02-03 20:42:00,42.8,21.1,24.42,South,180,0.0,0.0,42,0.00,,,0.00,WUHU216WMR200,2013-02-04 04:42:00,
2013-02-03 20:47:00,42.4,20.7,24.42,South,180,0.0,0.0,42,0.00,,,0.00,WUHU216WMR200,2013-02-04 04:47:00,
2013-02-03 20:52:00,42.3,20.7,24.39,South,180,0.0,0.0,42,0.00,,,0.00,WUHU216WMR200,2013-02-04 04:52:00,
2013-02-03 20:57:00,42.1,20.5,24.39,South,180,0.0,0.0,42,0.00,,,0.00,WUHU216WMR200,2013-02-04 04:57:00,
2013-02-03 21:00:00,42.1,20.5,24.39,South,180,0.0,0.0,42,0.00,,,0.00,WUHU216WMR200,2013-02-04 05:00:00,
2013-02-03 21:01:00,42.1,20.5,24.39,South,180,0.0,0.0,42,0.00,,,0.00,WUHU216WMR200,2013-02-04 05:01:00,
2013-02-03 21:03:00,41.9,20.3,24.39,South,180,0.0,0.0,42,0.00,,,0.00,WUHU216WMR200,2013-02-04 05:03:00,
2013-02-03 21:08:00,41.9,20.9,24.39,South,180,0.0,0.0,43,0.00,,,0.00,WUHU216WMR200,2013-02-04 05:08:00,
2013-02-03 21:13:00,42.1,21.0,24.39,South,180,0.0,0.0,43,0.00,,,0.00,WUHU216WMR200,2013-02-04 05:13:00,
2013-02-03 21:18:00,42.1,21.0,24.39,South,180,0.0,0.0,43,0.00,,,0.00,WUHU216WMR200,2013-02-04 05:18:00,
2013-02-03 21:23:00,41.7,20.7,24.39,South,180,0.0,0.0,43,0.00,,,0.00,WUHU216WMR200,2013-02-04 05:23:00,
2013-02-03 21:28:00,41.7,20.7,24.39,South,180,0.0,0.0,43,0.00,,,0.00,WUHU216WMR200,2013-02-04 05:28:00,
2013-02-03 21:33:00,41.7,20.7,24.39,South,180,0.0,0.0,43,0.00,,,0.00,WUHU216WMR200,2013-02-04 05:33:00,
2013-02-03 21:38:00,41.7,21.2,24.39,South,180,0.0,0.0,44,0.00,,,0.00,WUHU216WMR200,2013-02-04 05:38:00,
2013-02-03 21:43:00,41.7,21.2,24.39,South,180,0.0,0.0,44,0.00,,,0.00,WUHU216WMR200,2013-02-04 05:43:00,
2013-02-03 21:48:00,41.5,21.1,24.39,South,180,0.0,0.0,44,0.00,,,0.00,WUHU216WMR200,2013-02-04 05:48:00,
2013-02-03 21:53:00,41.7,21.2,24.39,South,180,0.0,0.0,44,0.00,,,0.00,WUHU216WMR200,2013-02-04 05:53:00,
2013-02-03 21:58:00,41.5,21.1,24.39,South,180,0.0,0.0,44,0.00,,,0.00,WUHU216WMR200,2013-02-04 05:58:00,
2013-02-03 22:03:00,41.7,21.8,24.39,South,180,0.0,0.0,45,0.00,,,0.00,WUHU216WMR200,2013-02-04 06:03:00,
2013-02-03 22:08:00,41.7,21.8,24.39,South,180,0.0,0.0,45,0.00,,,0.00,WUHU216WMR200,2013-02-04 06:08:00,
2013-02-03 22:13:00,41.7,21.8,24.39,South,180,0.0,0.0,45,0.00,,,0.00,WUHU216WMR200,2013-02-04 06:13:00,
2013-02-03 22:18:00,41.7,21.8,24.39,South,180,0.0,0.0,45,0.00,,,0.00,WUHU216WMR200,2013-02-04 06:18:00,
2013-02-03 22:23:00,41.7,21.8,24.39,South,180,0.0,0.0,45,0.00,,,0.00,WUHU216WMR200,2013-02-04 06:23:00,
2013-02-03 22:28:00,41.7,21.8,24.39,South,180,0.0,0.0,45,0.00,,,0.00,WUHU216WMR200,2013-02-04 06:28:00,
2013-02-03 22:33:00,41.9,22.0,24.39,South,180,0.0,0.0,45,0.00,,,0.00,WUHU216WMR200,2013-02-04 06:33:00,
2013-02-03 22:38:00,42.1,22.2,24.39,South,180,0.0,0.0,45,0.00,,,0.00,WUHU216WMR200,2013-02-04 06:38:00,
2013-02-03 22:43:00,42.1,22.2,24.39,South,180,0.0,0.0,45,0.00,,,0.00,WUHU216WMR200,2013-02-04 06:43:00,
2013-02-03 22:48:00,42.1,22.2,24.39,South,180,0.0,0.0,45,0.00,,,0.00,WUHU216WMR200,2013-02-04 06:48:00,
2013-02-03 22:53:00,42.4,22.4,24.39,South,180,0.0,0.0,45,0.00,,,0.00,WUHU216WMR200,2013-02-04 06:53:00,
2013-02-03 22:58:00,42.3,21.8,24.39,South,180,0.0,0.0,44,0.00,,,0.00,WUHU216WMR200,2013-02-04 06:58:00,
2013-02-03 23:03:00,42.3,21.8,24.39,South,180,0.0,0.0,44,0.00,,,0.00,WUHU216WMR200,2013-02-04 07:03:00,
2013-02-03 23:08:00,42.3,21.8,24.39,South,180,0.0,0.0,44,0.00,,,0.00,WUHU216WMR200,2013-02-04 07:08:00,
2013-02-03 23:13:00,42.3,21.8,24.39,South,180,0.0,0.0,44,0.00,,,0.00,WUHU216WMR200,2013-02-04 07:13:00,
2013-02-03 23:18:00,42.3,21.8,24.39,South,180,0.0,0.0,44,0.00,,,0.00,WUHU216WMR200,2013-02-04 07:18:00,
2013-02-03 23:23:00,42.1,21.6,24.42,South,180,0.0,0.0,44,0.00,,,0.00,WUHU216WMR200,2013-02-04 07:23:00,
2013-02-03 23:28:00,41.9,21.4,24.42,South,180,0.0,0.0,44,0.00,,,0.00,WUHU216WMR200,2013-02-04 07:28:00,
2013-02-03 23:33:00,41.7,21.2,24.42,South,180,0.0,0.0,44,0.00,,,0.00,WUHU216WMR200,2013-02-04 07:33:00,
2013-02-03 23:38:00,41.2,20.8,24.42,South,180,0.0,0.0,44,0.00,,,0.00,WUHU216WMR200,2013-02-04 07:38:00,
2013-02-03 23:43:00,41.0,20.6,24.42,South,180,0.0,0.0,44,0.00,,,0.00,WUHU216WMR200,2013-02-04 07:43:00,
2013-02-03 23:48:00,40.6,20.8,24.42,South,180,0.0,0.0,45,0.00,,,0.00,WUHU216WMR200,2013-02-04 07:48:00,
2013-02-03 23:53:00,40.5,20.7,24.42,South,180,0.0,0.0,45,0.00,,,0.00,WUHU216WMR200,2013-02-04 07:53:00,
2013-02-03 23:58:00,40.3,20.5,24.42,South,180,0.0,0.0,45,0.00,,,0.00,WUHU216WMR200,2013-02-04 07:58:00,